St Solene — FVDG — position and weather

sailwx.info

Track history (hours):
 
Tides and Currents Weather Stations Pressure Air Temp Water Temp Dewpoint Dewpoint Depression Visibility Wind Speed Wind Dir Waves Ship Positions

St Solene

Last reported at 2016-May-04 14:31 UTC. Time now 2016-May-04 15:27 UTC.
Position N 43°24' E 004°57'.

Length 104 m; draft 5.3 m.

Type: Tanker. MMSI: 226302000.

Date/timePositionNaut miles runAvg speedWind from/ knotsBaromVisibWave heightAir tempDewpointWater temp
2016-May-04 14:31N 43°24' E 004°57'0 0.0
2016-May-04 13:31N 43°24' E 004°57'0 0.1
2016-May-04 12:28N 43°24' E 004°57'0 0.1
2016-May-04 11:31N 43°24' E 004°57'0 0.0
2016-May-04 10:31N 43°24' E 004°57'0 0.0
2016-May-04 09:33N 43°24' E 004°57'0 0.0
2016-May-04 08:33N 43°24' E 004°57'0 0.0
2016-May-04 07:34N 43°24' E 004°57'4 4.4
2016-May-04 06:33N 43°20' E 004°59'39 1.4
2016-May-03 02:17N 43°03' E 004°11'3611.3
2016-May-02 23:04N 43°10' E 004°60'612.1
2016-May-02 22:33N 43°16' E 004°60'8 7.7
2016-May-02 21:33N 43°24' E 004°60'0 0.0
2016-May-02 20:32N 43°24' E 004°60'0 0.0
2016-May-02 19:32N 43°24' E 004°60'0 0.0
2016-May-02 18:29N 43°24' E 004°60'0 0.0
2016-May-02 17:29N 43°24' E 004°60'0 0.0
2016-May-02 16:32N 43°24' E 004°60'0 0.0
2016-May-02 15:32N 43°24' E 004°60'0 0.0
2016-May-02 14:32N 43°24' E 004°60'0 0.0
2016-May-02 13:32N 43°24' E 004°60'0 0.0
2016-May-02 12:32N 43°24' E 004°60'0 0.0
2016-May-02 11:32N 43°24' E 004°60'0 0.0
2016-May-02 10:32N 43°24' E 004°60'0 0.0
2016-May-02 09:32N 43°24' E 004°60'0 0.0
2016-May-02 08:32N 43°24' E 004°60'0 0.0
2016-May-02 07:32N 43°24' E 004°60'0 0.0
2016-May-02 06:32N 43°24' E 004°60'0 0.0
2016-May-02 05:32N 43°24' E 004°60'0 0.0
2016-May-02 04:32N 43°24' E 004°60'0 0.0
2016-May-02 03:32N 43°24' E 004°60'0 0.0
2016-May-02 02:32N 43°24' E 004°60'0 0.0
2016-May-02 01:32N 43°24' E 004°60'0 0.0
2016-May-02 00:32N 43°24' E 004°60'0 0.0
2016-May-01 23:32N 43°24' E 004°60'0 0.0
2016-May-01 22:32N 43°24' E 004°60'0 0.0
2016-May-01 21:32N 43°24' E 004°60'0 0.0
2016-May-01 20:32N 43°24' E 004°60'0 0.0
2016-May-01 19:32N 43°24' E 004°60'0 0.0
2016-May-01 18:32N 43°24' E 004°60'0 0.0
2016-May-01 17:32N 43°24' E 004°60'0 0.0
2016-May-01 16:32N 43°24' E 004°60'0 0.0
2016-May-01 15:32N 43°24' E 004°60'0 0.0
2016-May-01 14:32N 43°24' E 004°60'0 0.0
2016-May-01 13:32N 43°24' E 004°60'0 0.0
2016-May-01 12:32N 43°24' E 004°60'2 1.7
2016-May-01 11:33N 43°24' E 004°57'1 1.3
2016-May-01 10:33N 43°25' E 004°56'0 0.0
2016-May-01 09:33N 43°25' E 004°56'0 0.0
2016-May-01 08:33N 43°25' E 004°56'0 0.0
2016-May-01 07:33N 43°25' E 004°56'0 0.0
2016-May-01 06:33N 43°25' E 004°56'0 0.0
2016-May-01 05:33N 43°25' E 004°56'0 0.0
2016-May-01 04:33N 43°25' E 004°56'0 0.0
2016-May-01 03:33N 43°25' E 004°56'0 0.0
2016-May-01 02:33N 43°25' E 004°56'0 0.0
2016-May-01 01:33N 43°25' E 004°57'0 0.0
2016-May-01 00:33N 43°25' E 004°57'0 0.0
2016-Apr-30 23:33N 43°25' E 004°57'0 0.0
2016-Apr-30 22:33N 43°25' E 004°57'0 0.0
2016-Apr-30 21:33N 43°25' E 004°57'0 0.0
2016-Apr-30 20:33N 43°25' E 004°57'0 0.0
2016-Apr-30 19:33N 43°25' E 004°57'0 0.0
2016-Apr-30 18:33N 43°25' E 004°57'0 0.0
2016-Apr-30 17:33N 43°25' E 004°57'0 0.1
2016-Apr-30 16:33N 43°25' E 004°56'0 0.0
2016-Apr-30 15:33N 43°25' E 004°56'0 0.0
2016-Apr-30 14:33N 43°25' E 004°56'0 0.0
2016-Apr-30 13:33N 43°25' E 004°56'0 0.0
2016-Apr-30 12:33N 43°25' E 004°56'0 0.2
2016-Apr-30 11:33N 43°25' E 004°56'0 0.0
2016-Apr-30 10:33N 43°25' E 004°56'0 0.0
2016-Apr-30 09:33N 43°25' E 004°56'0 0.0
2016-Apr-30 08:33N 43°25' E 004°56'0 0.0
2016-Apr-30 07:33N 43°25' E 004°56'0 0.0
2016-Apr-30 06:33N 43°25' E 004°56'0 0.0
2016-Apr-30 05:33N 43°25' E 004°56'0 0.0
2016-Apr-30 04:33N 43°25' E 004°56'0 0.0
2016-Apr-30 03:33N 43°25' E 004°56'0 0.0
2016-Apr-30 02:33N 43°25' E 004°56'0 0.0
2016-Apr-30 01:33N 43°25' E 004°56'0 0.0
2016-Apr-30 00:33N 43°25' E 004°56'0 0.0
2016-Apr-29 23:33N 43°25' E 004°56'0 0.0
2016-Apr-29 22:33N 43°25' E 004°56'0 0.0
2016-Apr-29 21:33N 43°25' E 004°56'0 0.0
2016-Apr-29 20:33N 43°25' E 004°56'0 0.0
2016-Apr-29 19:33N 43°25' E 004°56'0 0.0
2016-Apr-29 18:33N 43°25' E 004°56'0 0.0
2016-Apr-29 17:33N 43°25' E 004°56'0 0.1
2016-Apr-29 16:33N 43°25' E 004°56'9 9.5
2016-Apr-29 15:33N 43°16' E 005°02'5 0.1
2016-Apr-27 14:33N 43°12' E 005°01'1212.2
2016-Apr-27 13:34N 43°23' E 004°56'3 0.6
2016-Apr-27 08:33N 43°26' E 004°54'0 0.0
2016-Apr-27 07:24N 43°26' E 004°54'0 0.0
2016-Apr-27 06:30N 43°26' E 004°54'0 0.0
2016-Apr-27 05:24N 43°26' E 004°54'0 0.0
2016-Apr-27 04:30N 43°26' E 004°54'0 0.0
2016-Apr-27 03:18N 43°26' E 004°54'0 0.0
2016-Apr-26 23:30N 43°26' E 004°54'0 0.0
2016-Apr-26 22:30N 43°26' E 004°54'0 0.0
2016-Apr-26 21:12N 43°26' E 004°54'0 0.0
2016-Apr-26 19:30N 43°26' E 004°54'0 0.0
2016-Apr-26 18:33N 43°26' E 004°54'0 0.0
2016-Apr-26 17:24N 43°26' E 004°54'0 0.1
2016-Apr-26 14:33N 43°26' E 004°53'3 3.0
2016-Apr-26 13:31N 43°24' E 004°57'0 0.0
2016-Apr-26 12:28N 43°24' E 004°57'0 0.0
2016-Apr-26 11:31N 43°24' E 004°57'0 0.0
2016-Apr-26 10:31N 43°24' E 004°57'0 0.0
2016-Apr-26 09:31N 43°24' E 004°57'0 0.0
2016-Apr-26 08:31N 43°24' E 004°57'0 0.0
2016-Apr-26 07:31N 43°24' E 004°57'0 0.0
2016-Apr-26 06:31N 43°24' E 004°57'0 0.0
2016-Apr-26 05:34N 43°24' E 004°57'0 0.0
2016-Apr-26 04:31N 43°24' E 004°57'0 0.0
2016-Apr-26 03:31N 43°24' E 004°57'0 0.0
2016-Apr-26 02:31N 43°24' E 004°57'0 0.0
2016-Apr-26 01:31N 43°24' E 004°57'0 0.0
2016-Apr-26 00:31N 43°24' E 004°57'0 0.0
2016-Apr-25 23:31N 43°24' E 004°57'0 0.0
2016-Apr-25 22:33N 43°24' E 004°57'2 1.9
2016-Apr-25 21:33N 43°24' E 004°60'0 0.0
2016-Apr-25 20:33N 43°24' E 004°60'0 0.0
2016-Apr-25 19:33N 43°24' E 004°60'0 0.0
2016-Apr-25 18:33N 43°24' E 004°60'0 0.0
2016-Apr-25 17:33N 43°24' E 004°60'0 0.0
2016-Apr-25 16:33N 43°24' E 004°60'0 0.0
2016-Apr-25 15:30N 43°24' E 004°60'0 0.0
2016-Apr-25 14:33N 43°24' E 004°60'0 0.0
2016-Apr-25 13:33N 43°24' E 004°60'0 0.0
2016-Apr-25 12:33N 43°24' E 004°60'0 0.0
2016-Apr-25 11:33N 43°24' E 004°60'0 0.0
2016-Apr-25 10:33N 43°24' E 004°60'0 0.0
2016-Apr-25 09:30N 43°24' E 004°60'0 0.0
2016-Apr-25 08:33N 43°24' E 004°60'0 0.0
2016-Apr-25 07:33N 43°24' E 004°60'0 0.0
2016-Apr-25 06:33N 43°24' E 004°60'0 0.0
2016-Apr-25 05:33N 43°24' E 004°60'0 0.0
2016-Apr-25 04:33N 43°24' E 004°60'0 0.0
2016-Apr-25 03:30N 43°24' E 004°60'0 0.0
2016-Apr-25 02:33N 43°24' E 004°60'0 0.0
2016-Apr-25 01:33N 43°24' E 004°60'0 0.0
2016-Apr-25 00:33N 43°24' E 004°60'0 0.0
2016-Apr-24 23:33N 43°24' E 004°60'0 0.0
2016-Apr-24 22:33N 43°24' E 004°60'0 0.0
2016-Apr-24 21:33N 43°24' E 004°60'0 0.0
2016-Apr-24 20:33N 43°24' E 004°60'0 0.2
2016-Apr-24 19:33N 43°24' E 004°60'3 3.0
2016-Apr-24 18:32N 43°24' E 004°55'0 0.0
2016-Apr-24 17:32N 43°24' E 004°55'0 0.0
2016-Apr-24 16:32N 43°24' E 004°55'0 0.0
2016-Apr-24 15:32N 43°24' E 004°55'0 0.0
2016-Apr-24 14:32N 43°24' E 004°55'  
Track history (hours):
 
Tides and Currents Weather Stations Pressure Air Temp Water Temp Dewpoint Dewpoint Depression Visibility Wind Speed Wind Dir Waves Ship Positions

St Solene

Last reported at 2016-May-04 14:31 UTC. Time now 2016-May-04 15:27 UTC.
Position N 43°24' E 004°57'.

Length 104 m; draft 5.3 m.

Type: Tanker. MMSI: 226302000.

Date/timePositionNaut miles runAvg speedWind from/ knotsBaromVisibWave heightAir tempDewpointWater temp
2016-May-04 14:31N 43°24' E 004°57'0 0.0
2016-May-04 13:31N 43°24' E 004°57'0 0.1
2016-May-04 12:28N 43°24' E 004°57'0 0.1
2016-May-04 11:31N 43°24' E 004°57'0 0.0
2016-May-04 10:31N 43°24' E 004°57'0 0.0
2016-May-04 09:33N 43°24' E 004°57'0 0.0
2016-May-04 08:33N 43°24' E 004°57'0 0.0
2016-May-04 07:34N 43°24' E 004°57'4 4.4
2016-May-04 06:33N 43°20' E 004°59'39 1.4
2016-May-03 02:17N 43°03' E 004°11'3611.3
2016-May-02 23:04N 43°10' E 004°60'612.1
2016-May-02 22:33N 43°16' E 004°60'8 7.7
2016-May-02 21:33N 43°24' E 004°60'0 0.0
2016-May-02 20:32N 43°24' E 004°60'0 0.0
2016-May-02 19:32N 43°24' E 004°60'0 0.0
2016-May-02 18:29N 43°24' E 004°60'0 0.0
2016-May-02 17:29N 43°24' E 004°60'0 0.0
2016-May-02 16:32N 43°24' E 004°60'0 0.0
2016-May-02 15:32N 43°24' E 004°60'0 0.0
2016-May-02 14:32N 43°24' E 004°60'0 0.0
2016-May-02 13:32N 43°24' E 004°60'0 0.0
2016-May-02 12:32N 43°24' E 004°60'0 0.0
2016-May-02 11:32N 43°24' E 004°60'0 0.0
2016-May-02 10:32N 43°24' E 004°60'0 0.0
2016-May-02 09:32N 43°24' E 004°60'0 0.0
2016-May-02 08:32N 43°24' E 004°60'0 0.0
2016-May-02 07:32N 43°24' E 004°60'0 0.0
2016-May-02 06:32N 43°24' E 004°60'0 0.0
2016-May-02 05:32N 43°24' E 004°60'0 0.0
2016-May-02 04:32N 43°24' E 004°60'0 0.0
2016-May-02 03:32N 43°24' E 004°60'0 0.0
2016-May-02 02:32N 43°24' E 004°60'0 0.0
2016-May-02 01:32N 43°24' E 004°60'0 0.0
2016-May-02 00:32N 43°24' E 004°60'0 0.0
2016-May-01 23:32N 43°24' E 004°60'0 0.0
2016-May-01 22:32N 43°24' E 004°60'0 0.0
2016-May-01 21:32N 43°24' E 004°60'0 0.0
2016-May-01 20:32N 43°24' E 004°60'0 0.0
2016-May-01 19:32N 43°24' E 004°60'0 0.0
2016-May-01 18:32N 43°24' E 004°60'0 0.0
2016-May-01 17:32N 43°24' E 004°60'0 0.0
2016-May-01 16:32N 43°24' E 004°60'0 0.0
2016-May-01 15:32N 43°24' E 004°60'0 0.0
2016-May-01 14:32N 43°24' E 004°60'0 0.0
2016-May-01 13:32N 43°24' E 004°60'0 0.0
2016-May-01 12:32N 43°24' E 004°60'2 1.7
2016-May-01 11:33N 43°24' E 004°57'1 1.3
2016-May-01 10:33N 43°25' E 004°56'0 0.0
2016-May-01 09:33N 43°25' E 004°56'0 0.0
2016-May-01 08:33N 43°25' E 004°56'0 0.0
2016-May-01 07:33N 43°25' E 004°56'0 0.0
2016-May-01 06:33N 43°25' E 004°56'0 0.0
2016-May-01 05:33N 43°25' E 004°56'0 0.0
2016-May-01 04:33N 43°25' E 004°56'0 0.0
2016-May-01 03:33N 43°25' E 004°56'0 0.0
2016-May-01 02:33N 43°25' E 004°56'0 0.0
2016-May-01 01:33N 43°25' E 004°57'0 0.0
2016-May-01 00:33N 43°25' E 004°57'0 0.0
2016-Apr-30 23:33N 43°25' E 004°57'0 0.0
2016-Apr-30 22:33N 43°25' E 004°57'0 0.0
2016-Apr-30 21:33N 43°25' E 004°57'0 0.0
2016-Apr-30 20:33N 43°25' E 004°57'0 0.0
2016-Apr-30 19:33N 43°25' E 004°57'0 0.0
2016-Apr-30 18:33N 43°25' E 004°57'0 0.0
2016-Apr-30 17:33N 43°25' E 004°57'0 0.1
2016-Apr-30 16:33N 43°25' E 004°56'0 0.0
2016-Apr-30 15:33N 43°25' E 004°56'0 0.0
2016-Apr-30 14:33N 43°25' E 004°56'0 0.0
2016-Apr-30 13:33N 43°25' E 004°56'0 0.0
2016-Apr-30 12:33N 43°25' E 004°56'0 0.2
2016-Apr-30 11:33N 43°25' E 004°56'0 0.0
2016-Apr-30 10:33N 43°25' E 004°56'0 0.0
2016-Apr-30 09:33N 43°25' E 004°56'0 0.0
2016-Apr-30 08:33N 43°25' E 004°56'0 0.0
2016-Apr-30 07:33N 43°25' E 004°56'0 0.0
2016-Apr-30 06:33N 43°25' E 004°56'0 0.0
2016-Apr-30 05:33N 43°25' E 004°56'0 0.0
2016-Apr-30 04:33N 43°25' E 004°56'0 0.0
2016-Apr-30 03:33N 43°25' E 004°56'0 0.0
2016-Apr-30 02:33N 43°25' E 004°56'0 0.0
2016-Apr-30 01:33N 43°25' E 004°56'0 0.0
2016-Apr-30 00:33N 43°25' E 004°56'0 0.0
2016-Apr-29 23:33N 43°25' E 004°56'0 0.0
2016-Apr-29 22:33N 43°25' E 004°56'0 0.0
2016-Apr-29 21:33N 43°25' E 004°56'0 0.0
2016-Apr-29 20:33N 43°25' E 004°56'0 0.0
2016-Apr-29 19:33N 43°25' E 004°56'0 0.0
2016-Apr-29 18:33N 43°25' E 004°56'0 0.0
2016-Apr-29 17:33N 43°25' E 004°56'0 0.1
2016-Apr-29 16:33N 43°25' E 004°56'9 9.5
2016-Apr-29 15:33N 43°16' E 005°02'5 0.1
2016-Apr-27 14:33N 43°12' E 005°01'1212.2
2016-Apr-27 13:34N 43°23' E 004°56'3 0.6
2016-Apr-27 08:33N 43°26' E 004°54'0 0.0
2016-Apr-27 07:24N 43°26' E 004°54'0 0.0
2016-Apr-27 06:30N 43°26' E 004°54'0 0.0
2016-Apr-27 05:24N 43°26' E 004°54'0 0.0
2016-Apr-27 04:30N 43°26' E 004°54'0 0.0
2016-Apr-27 03:18N 43°26' E 004°54'0 0.0
2016-Apr-26 23:30N 43°26' E 004°54'0 0.0
2016-Apr-26 22:30N 43°26' E 004°54'0 0.0
2016-Apr-26 21:12N 43°26' E 004°54'0 0.0
2016-Apr-26 19:30N 43°26' E 004°54'0 0.0
2016-Apr-26 18:33N 43°26' E 004°54'0 0.0
2016-Apr-26 17:24N 43°26' E 004°54'0 0.1
2016-Apr-26 14:33N 43°26' E 004°53'3 3.0
2016-Apr-26 13:31N 43°24' E 004°57'0 0.0
2016-Apr-26 12:28N 43°24' E 004°57'0 0.0
2016-Apr-26 11:31N 43°24' E 004°57'0 0.0
2016-Apr-26 10:31N 43°24' E 004°57'0 0.0
2016-Apr-26 09:31N 43°24' E 004°57'0 0.0
2016-Apr-26 08:31N 43°24' E 004°57'0 0.0
2016-Apr-26 07:31N 43°24' E 004°57'0 0.0
2016-Apr-26 06:31N 43°24' E 004°57'0 0.0
2016-Apr-26 05:34N 43°24' E 004°57'0 0.0
2016-Apr-26 04:31N 43°24' E 004°57'0 0.0
2016-Apr-26 03:31N 43°24' E 004°57'0 0.0
2016-Apr-26 02:31N 43°24' E 004°57'0 0.0
2016-Apr-26 01:31N 43°24' E 004°57'0 0.0
2016-Apr-26 00:31N 43°24' E 004°57'0 0.0
2016-Apr-25 23:31N 43°24' E 004°57'0 0.0
2016-Apr-25 22:33N 43°24' E 004°57'2 1.9
2016-Apr-25 21:33N 43°24' E 004°60'0 0.0
2016-Apr-25 20:33N 43°24' E 004°60'0 0.0
2016-Apr-25 19:33N 43°24' E 004°60'0 0.0
2016-Apr-25 18:33N 43°24' E 004°60'0 0.0
2016-Apr-25 17:33N 43°24' E 004°60'0 0.0
2016-Apr-25 16:33N 43°24' E 004°60'0 0.0
2016-Apr-25 15:30N 43°24' E 004°60'0 0.0
2016-Apr-25 14:33N 43°24' E 004°60'0 0.0
2016-Apr-25 13:33N 43°24' E 004°60'0 0.0
2016-Apr-25 12:33N 43°24' E 004°60'0 0.0
2016-Apr-25 11:33N 43°24' E 004°60'0 0.0
2016-Apr-25 10:33N 43°24' E 004°60'0 0.0
2016-Apr-25 09:30N 43°24' E 004°60'0 0.0
2016-Apr-25 08:33N 43°24' E 004°60'0 0.0
2016-Apr-25 07:33N 43°24' E 004°60'0 0.0
2016-Apr-25 06:33N 43°24' E 004°60'0 0.0
2016-Apr-25 05:33N 43°24' E 004°60'0 0.0
2016-Apr-25 04:33N 43°24' E 004°60'0 0.0
2016-Apr-25 03:30N 43°24' E 004°60'0 0.0
2016-Apr-25 02:33N 43°24' E 004°60'0 0.0
2016-Apr-25 01:33N 43°24' E 004°60'0 0.0
2016-Apr-25 00:33N 43°24' E 004°60'0 0.0
2016-Apr-24 23:33N 43°24' E 004°60'0 0.0
2016-Apr-24 22:33N 43°24' E 004°60'0 0.0
2016-Apr-24 21:33N 43°24' E 004°60'0 0.0
2016-Apr-24 20:33N 43°24' E 004°60'0 0.2
2016-Apr-24 19:33N 43°24' E 004°60'3 3.0
2016-Apr-24 18:32N 43°24' E 004°55'0 0.0
2016-Apr-24 17:32N 43°24' E 004°55'0 0.0
2016-Apr-24 16:32N 43°24' E 004°55'0 0.0
2016-Apr-24 15:32N 43°24' E 004°55'0 0.0
2016-Apr-24 14:32N 43°24' E 004°55'  

Dump ship's entire track history